ADDS METAR Data INFO
IDs: Format: Raw Decoded Include TAF

Data at: 2111 UTC 22 Oct 2017

KJCA 222055Z AUTO 11006KT 10SM BKN044 OVC065 25/16 A3018 RMK AO2
KJCA 222035Z AUTO 11005KT 10SM BKN046 OVC065 25/16 A3018 RMK AO2
KJCA 222015Z AUTO 11004KT 10SM BKN044 BKN060 OVC065 25/16 A3018 RMK AO2
KJCA 221955Z AUTO 08003KT 10SM OVC043 24/16 A3019 RMK AO2
KJCA 221935Z AUTO 08003KT 10SM BKN040 BKN048 OVC055 25/16 A3019 RMK AO2
KJCA 221915Z AUTO 12005KT 10SM BKN040 BKN045 OVC060 26/16 A3020 RMK AO2
KJCA 221855Z AUTO 12008KT 10SM SCT040 SCT047 BKN060 25/16 A3021 RMK AO2
KJCA 221835Z AUTO 12006G14KT 10SM SCT055 25/15 A3021 RMK AO2
KJCA 221815Z AUTO 13005G08KT 3SM HZ SCT055 25/16 A3022 RMK AO2
KJCA 221755Z AUTO 13009KT 100V170 10SM SCT040 BKN055 25/16 A3023 RMK AO2
KJCA 221735Z AUTO 12008KT 10SM SCT039 SCT045 OVC055 24/16 A3024 RMK AO2
KJCA 221715Z AUTO 11006KT 10SM SCT032 BKN038 OVC055 24/16 A3024 RMK AO2
KJCA 221655Z AUTO 11006KT 10SM BKN032 OVC055 24/17 A3025 RMK AO2
KJCA 221635Z AUTO 11007KT 10SM SCT028 OVC055 23/17 A3027 RMK AO2
KJCA 221615Z AUTO 12006KT 10SM SCT026 OVC055 22/17 A3028 RMK AO2
KJCA 221555Z AUTO 11006KT 10SM BKN055 22/17 A3029 RMK AO2
KJCA 221535Z AUTO 10005KT 10SM OVC055 21/16 A3029 RMK AO2
KJCA 221515Z AUTO 11006KT 10SM OVC055 20/16 A3029 RMK AO2
KJCA 221455Z AUTO 11003KT 10SM OVC055 19/16 A3030 RMK AO2
KJCA 221435Z AUTO 08004KT 10SM BKN055 18/15 A3030 RMK AO2
KJCA 221415Z AUTO 09003KT 10SM SCT025 BKN055 17/15 A3032 RMK AO2
KJCA 221355Z AUTO 06004KT 10SM BKN055 16/14 A3032 RMK AO2
KJCA 221335Z AUTO 07005KT 10SM SCT055 15/13 A3031 RMK AO2
KJCA 221315Z AUTO 06004KT 10SM SCT029 SCT039 SCT048 15/13 A3032 RMK AO2
KJCA 221255Z AUTO 04003KT 10SM SCT031 SCT049 14/13 A3032 RMK AO2
KJCA 221235Z AUTO 00000KT 10SM SCT030 SCT049 13/12 A3031 RMK AO2
KJCA 221215Z AUTO 00000KT 10SM SCT031 SCT036 SCT046 13/12 A3030 RMK AO2
KJCA 221155Z AUTO 05003KT 10SM SCT036 SCT044 BKN050 13/12 A3029 RMK AO2
KJCA 221135Z AUTO 05003KT 10SM SCT036 12/12 A3029 RMK AO2
KJCA 221115Z AUTO 05003KT 10SM CLR 12/12 A3028 RMK AO2
KJCA 221055Z AUTO 05003KT 10SM CLR 12/12 A3028 RMK AO2
KJCA 221035Z AUTO 04003KT 10SM CLR 12/12 A3028 RMK AO2
KJCA 221015Z AUTO 04003KT 10SM CLR 12/12 A3027 RMK AO2
KJCA 220955Z AUTO 05003KT 10SM CLR 12/12 A3027 RMK AO2
KJCA 220935Z AUTO 00000KT 10SM CLR 13/12 A3027 RMK AO2
KJCA 220915Z AUTO 06003KT 10SM CLR 13/12 A3027 RMK AO2
KJCA 220855Z AUTO 06003KT 10SM CLR 13/12 A3027 RMK AO2
KJCA 220835Z AUTO 06003KT 10SM CLR 13/12 A3027 RMK AO2
KJCA 220815Z AUTO 05003KT 10SM CLR 13/12 A3027 RMK AO2
KJCA 220755Z AUTO 05003KT 10SM CLR 13/12 A3027 RMK AO2
KJCA 220735Z AUTO 00000KT 10SM CLR 13/12 A3028 RMK AO2
KJCA 220715Z AUTO 00000KT 10SM CLR 13/12 A3028 RMK AO2
KJCA 220655Z AUTO 00000KT 10SM CLR 12/12 A3029 RMK AO2
KJCA 220635Z AUTO 05003KT 10SM CLR 13/12 A3029 RMK AO2
KJCA 220615Z AUTO 06003KT 10SM CLR 13/12 A3029 RMK AO2
KJCA 220555Z AUTO 05003KT 10SM CLR 13/12 A3029 RMK AO2
KJCA 220535Z AUTO 00000KT 10SM CLR 13/12 A3029 RMK AO2
KJCA 220515Z AUTO 04003KT 10SM CLR 13/12 A3029 RMK AO2
KJCA 220455Z AUTO 05003KT 10SM CLR 13/12 A3030 RMK AO2
KJCA 220435Z AUTO 05003KT 10SM CLR 13/12 A3030 RMK AO2
KJCA 220415Z AUTO 05003KT 10SM CLR 13/12 A3030 RMK AO2
KJCA 220355Z AUTO 00000KT 10SM CLR 13/12 A3030 RMK AO2
KJCA 220335Z AUTO 00000KT 10SM CLR 14/12 A3030 RMK AO2
KJCA 220315Z AUTO 00000KT 10SM CLR 13/12 A3030 RMK AO2
KJCA 220255Z AUTO 00000KT 10SM CLR 16/12 A3030 RMK AO2
KJCA 220235Z AUTO 00000KT 10SM CLR 15/12 A3030 RMK AO2
KJCA 220215Z AUTO 00000KT 10SM CLR 15/12 A3030 RMK AO2
KJCA 220155Z AUTO 00000KT 10SM CLR 16/12 A3030 RMK AO2
KJCA 220135Z AUTO 00000KT 10SM CLR 17/12 A3029 RMK AO2
KJCA 220115Z AUTO 09003KT 10SM CLR 17/12 A3029 RMK AO2
KJCA 220055Z AUTO 00000KT 10SM CLR 17/12 A3030 RMK AO2
KJCA 220035Z AUTO 00000KT 10SM CLR 17/12 A3030 RMK AO2
KJCA 220015Z AUTO 00000KT 10SM CLR 17/12 A3029 RMK AO2
KJCA 212355Z AUTO 00000KT 10SM CLR 17/12 A3029 RMK AO2
KJCA 212335Z AUTO 00000KT 10SM CLR 17/12 A3029 RMK AO2
KJCA 212315Z AUTO 00000KT 10SM CLR 18/12 A3029 RMK AO2
KJCA 212255Z AUTO 00000KT 10SM CLR 20/12 A3029 RMK AO2
KJCA 212235Z AUTO 00000KT 10SM CLR 21/11 A3029 RMK AO2
KJCA 212215Z AUTO 11003KT 10SM CLR 22/11 A3028 RMK AO2
KJCA 212155Z AUTO 12006KT 10SM CLR 23/11 A3028 RMK AO2
KJCA 212135Z AUTO 10004KT 10SM CLR 24/10 A3027 RMK AO2
KJCA 212115Z AUTO 11004KT 10SM CLR 23/10 A3027 RMK AO2
KJCA 212055Z AUTO 12006KT 10SM CLR 24/10 A3027 RMK AO2
KJCA 212035Z AUTO 13005KT 10SM CLR 24/10 A3026 RMK AO2
KJCA 212015Z AUTO 00000KT 10SM CLR 23/10 A3027 RMK AO2
KJCA 211955Z AUTO 13005KT 10SM CLR 24/10 A3027 RMK AO2
KJCA 211935Z AUTO 15004KT 10SM CLR 24/10 A3027 RMK AO2
KJCA 211915Z AUTO 11006KT 10SM CLR 24/09 A3027 RMK AO2
KJCA 211855Z AUTO 10004KT 10SM CLR 23/10 A3027 RMK AO2
KJCA 211835Z AUTO 12007KT 10SM CLR 24/10 A3027 RMK AO2
KJCA 211815Z AUTO 14005KT 10SM CLR 23/09 A3028 RMK AO2
KJCA 211755Z AUTO 12007KT 10SM CLR 24/10 A3029 RMK AO2
KJCA 211735Z AUTO 11007KT 070V140 10SM CLR 24/11 A3030 RMK AO2
KJCA 211715Z AUTO 11006KT 10SM CLR 23/11 A3031 RMK AO2
KJCA 211655Z AUTO 09003KT 10SM CLR 22/11 A3032 RMK AO2
KJCA 211635Z AUTO 00000KT 10SM CLR 22/11 A3033 RMK AO2
KJCA 211615Z AUTO 12004KT 10SM CLR 22/11 A3033 RMK AO2
KJCA 211555Z AUTO 02003KT 10SM CLR 21/11 A3033 RMK AO2
KJCA 211535Z AUTO 00000KT 10SM CLR 19/11 A3033 RMK AO2
KJCA 211515Z AUTO 06003KT 10SM CLR 18/11 A3033 RMK AO2
KJCA 211455Z AUTO 00000KT 10SM CLR 17/12 A3033 RMK AO2
KJCA 211435Z AUTO 00000KT 10SM CLR 17/11 A3033 RMK AO2
KJCA 211415Z AUTO 00000KT 10SM CLR 16/11 A3033 RMK AO2
KJCA 211355Z AUTO 00000KT 10SM CLR 15/11 A3033 RMK AO2
KJCA 211335Z AUTO 04004KT 10SM CLR 14/10 A3033 RMK AO2
KJCA 211315Z AUTO 00000KT 10SM CLR 13/11 A3031 RMK AO2
KJCA 211255Z AUTO 04003KT 10SM CLR 10/10 A3031 RMK AO2
KJCA 211235Z AUTO 00000KT 10SM CLR 08/08 A3030 RMK AO2
KJCA 211215Z AUTO 00000KT 10SM CLR 08/08 A3030 RMK AO2
KJCA 211155Z AUTO 00000KT 10SM CLR 08/08 A3029 RMK AO2
KJCA 211135Z AUTO 00000KT 10SM CLR 08/08 A3028 RMK AO2
KJCA 211115Z AUTO 00000KT 10SM CLR 09/09 A3029 RMK AO2
KJCA 211055Z AUTO 00000KT 10SM CLR 08/08 A3028 RMK AO2
KJCA 211035Z AUTO 00000KT 10SM CLR 09/09 A3027 RMK AO2
KJCA 211015Z AUTO 00000KT 10SM CLR 09/09 A3027 RMK AO2
KJCA 210955Z AUTO 00000KT 10SM CLR 09/09 A3026 RMK AO2
KJCA 210935Z AUTO 00000KT 10SM CLR 09/09 A3025 RMK AO2
KJCA 210915Z AUTO 00000KT 10SM CLR 08/08 A3025 RMK AO2